Time;durP1;ratioP1;P1;durP2;ratioP2;P2;SDS_P1;SDS_P2;PMS_P1;PMS_P2;Temp;Humidity;BMP_temperature;BMP_pressure;BME280_temperature;BME280_humidity;BME280_pressure;Samples;Min_cycle;Max_cycle;Signal;HPM_P1;HPM_P2
2023/11/05 00:01:07;;;;;;;8.43;2.08;;;8.60;99.90;;;7.38;88.20;97644.66;4955399;28;20037;-81
2023/11/05 00:03:32;;;;;;;4.30;2.15;;;8.70;99.90;;;7.41;87.89;97648.81;4944273;28;20118;-82
2023/11/05 00:06:06;;;;;;;6.43;2.05;;;8.70;99.90;;;7.36;87.96;97646.59;4913516;28;20141;-81
2023/11/05 00:08:34;;;;;;;4.30;1.88;;;8.70;99.90;;;7.39;88.16;97651.56;4902931;28;20053;-82
2023/11/05 00:11:02;;;;;;;4.38;1.80;;;8.70;99.90;;;7.40;87.80;97642.75;4928985;28;20034;-83
2023/11/05 00:13:35;;;;;;;4.30;1.77;;;8.70;99.90;;;7.42;87.41;97640.00;4905071;28;20078;-82
2023/11/05 00:16:04;;;;;;;6.40;1.88;;;8.80;99.90;;;7.50;86.78;97655.09;4881812;28;20042;-83
2023/11/05 00:18:42;;;;;;;;;;;;;;;;;;;;;
2023/11/05 00:21:10;;;;;;;7.03;2.10;;;8.80;99.90;;;7.55;86.89;97645.88;4857839;28;20522;-79
2023/11/05 00:23:36;;;;;;;4.88;1.75;;;8.90;99.90;;;7.63;87.02;97642.63;4853531;28;20028;-82
2023/11/05 00:26:25;;;;;;;6.75;2.45;;;8.90;99.90;;;7.62;85.80;97635.72;4869979;28;20067;-79
2023/11/05 00:28:53;;;;;;;6.93;2.10;;;9.00;99.90;;;7.65;86.21;97639.91;4880649;28;20040;-82
2023/11/05 00:31:26;;;;;;;5.53;1.65;;;8.90;99.90;;;7.67;86.49;97640.59;4878276;28;20054;-81
2023/11/05 00:33:55;;;;;;;3.83;1.70;;;9.00;99.90;;;7.71;85.86;97648.06;4891644;28;20199;-80
2023/11/05 00:36:23;;;;;;;2.58;1.40;;;9.00;99.90;;;7.70;86.22;97635.91;4919640;28;20052;-82
2023/11/05 00:38:56;;;;;;;7.68;1.50;;;9.00;99.90;;;7.72;85.84;97639.22;4868382;28;20090;-81
2023/11/05 00:41:24;;;;;;;3.17;1.58;;;9.00;99.90;;;7.78;85.58;97635.28;4907030;28;20481;-82
2023/11/05 00:46:43;;;;;;;3.28;1.55;;;;;;;7.84;85.40;97629.53;4899530;28;20247;-80
2023/11/05 00:49:13;;;;;;;3.42;1.55;;;9.10;99.90;;;7.83;85.70;97614.75;4927380;28;20101;-81
2023/11/05 00:51:48;;;;;;;4.97;1.73;;;9.10;99.90;;;7.83;84.96;97608.69;4923211;28;20500;-81
2023/11/05 00:54:14;;;;;;;4.13;1.75;;;;;;;7.78;84.73;97596.81;4895591;28;20321;-84
2023/11/05 00:56:56;;;;;;;4.07;1.50;;;9.10;99.90;;;7.74;85.05;97581.50;4916438;28;20107;-84
2023/11/05 00:59:44;;;;;;;5.57;1.63;;;9.10;99.90;;;7.76;85.09;97585.63;4882717;28;20089;-84
2023/11/05 01:02:13;;;;;;;3.42;1.30;;;9.10;99.90;;;7.80;85.15;97594.06;4921040;28;21316;-85
2023/11/05 01:04:47;;;;;;;2.55;1.08;;;9.10;99.90;;;7.81;85.46;97585.25;4904514;28;20455;-82
2023/11/05 01:07:15;;;;;;;3.50;1.60;;;9.10;99.90;;;7.83;85.25;97579.88;4908534;28;20054;-84
2023/11/05 01:09:41;;;;;;;4.15;1.65;;;9.10;99.90;;;7.80;84.90;97578.34;4899214;28;20051;-85
2023/11/05 01:12:07;;;;;;;4.10;1.88;;;9.10;99.90;;;7.85;85.02;97575.34;4889678;28;20165;-80
2023/11/05 01:14:55;;;;;;;4.13;1.70;;;9.10;99.90;;;7.87;85.72;97583.91;4932753;28;20219;-82
2023/11/05 01:17:24;;;;;;;4.28;1.73;;;9.10;99.90;;;7.88;85.36;97582.91;4906356;28;20054;-82
2023/11/05 01:19:52;;;;;;;3.03;1.40;;;9.10;99.90;;;7.86;85.62;97580.47;4924608;28;20042;-82
2023/11/05 01:22:26;;;;;;;3.55;1.42;;;9.10;99.90;;;7.81;85.26;97577.38;4914467;28;20088;-80
2023/11/05 01:24:55;;;;;;;6.15;1.48;;;9.10;99.90;;;7.78;85.72;97568.00;4907172;28;20516;-82
2023/11/05 01:27:27;;;;;;;2.40;1.27;;;9.10;99.90;;;7.76;85.80;97563.88;4901003;28;20030;-82
2023/11/05 01:29:56;;;;;;;3.00;1.30;;;9.10;99.90;;;7.74;85.70;97560.53;4904949;28;20036;-82
2023/11/05 01:32:23;;;;;;;7.38;1.42;;;9.00;99.90;;;7.69;86.52;97558.31;4952881;28;20042;-81
2023/11/05 01:34:59;;;;;;;6.75;1.55;;;9.00;99.90;;;7.70;86.69;97549.50;4924979;28;21363;-81
2023/11/05 01:37:25;;;;;;;3.05;1.40;;;9.00;99.90;;;7.69;86.12;97547.00;4898078;28;20099;-81
2023/11/05 01:40:07;;;;;;;2.45;1.50;;;9.00;99.90;;;7.69;86.22;97547.84;4910086;28;20042;-81
2023/11/05 01:42:56;;;;;;;4.57;1.73;;;9.00;99.90;;;7.68;86.49;97543.56;4911764;28;20058;-84
2023/11/05 01:45:24;;;;;;;4.20;1.80;;;8.90;99.90;;;7.59;87.18;97542.53;4930773;28;20041;-82
2023/11/05 01:48:04;;;;;;;2.90;1.08;;;8.90;99.90;;;7.47;87.36;97537.53;4905153;28;20085;-82
2023/11/05 01:50:41;;;;;;;5.03;1.58;;;8.80;99.90;;;7.47;87.58;97548.81;4919394;28;20077;-82
2023/11/05 01:53:08;;;;;;;4.05;2.03;;;8.80;99.90;;;7.43;87.99;97534.34;4919191;28;20045;-81
2023/11/05 01:55:35;;;;;;;5.40;1.65;;;8.80;99.90;;;7.43;88.43;97536.97;4930809;28;21265;-81
2023/11/05 01:58:11;;;;;;;3.35;1.50;;;8.80;99.90;;;7.45;88.55;97542.91;4900737;28;20120;-82
2023/11/05 02:00:37;;;;;;;;;;;8.70;99.90;;;7.44;88.42;97532.56;4899296;28;20550;-80
2023/11/05 02:03:10;;;;;;;4.90;1.80;;;8.70;99.90;;;7.32;89.30;97527.41;4926842;28;20068;-82
2023/11/05 02:05:36;;;;;;;4.50;1.58;;;8.70;99.90;;;7.32;89.81;97537.88;4916212;28;20081;-81
2023/11/05 02:08:06;;;;;;;5.50;2.10;;;8.60;99.90;;;7.32;90.46;97534.41;4929871;28;20047;-81
2023/11/05 02:10:39;;;;;;;5.85;1.58;;;8.70;99.90;;;7.35;90.05;97536.78;4899290;28;20035;-81
2023/11/05 02:13:07;;;;;;;5.03;1.33;;;8.70;99.90;;;7.31;90.41;97532.75;4915187;28;20115;-81
2023/11/05 02:15:35;;;;;;;3.28;1.40;;;8.70;99.90;;;7.34;90.46;97532.50;4901991;28;20038;-82
2023/11/05 02:18:20;;;;;;;;;;;;;;;;;;;;;
2023/11/05 02:20:56;;;;;;;10.90;1.95;;;8.70;99.90;;;7.47;90.82;97529.66;4896071;28;20324;-80
2023/11/05 02:23:34;;;;;;;4.88;1.98;;;;;;;7.48;91.08;97540.00;4922121;28;20065;-82
2023/11/05 02:26:14;;;;;;;2.70;1.42;;;8.80;99.90;;;7.46;90.66;97531.47;4939830;28;20038;-82
2023/11/05 02:28:55;;;;;;;3.90;1.70;;;8.80;99.90;;;7.47;90.83;97535.72;4904865;28;20149;-82
2023/11/05 02:31:44;;;;;;;7.25;1.90;;;8.80;99.90;;;7.55;91.12;97533.28;4907300;28;20097;-82
2023/11/05 02:34:13;;;;;;;4.25;1.80;;;8.80;99.90;;;7.57;91.03;97536.59;4886777;28;20074;-81
2023/11/05 02:36:46;;;;;;;4.30;1.90;;;8.90;99.90;;;7.62;91.30;97530.16;4935350;28;20527;-81
2023/11/05 02:39:14;;;;;;;7.85;1.77;;;8.90;99.90;;;7.65;90.76;97525.50;4934893;28;20052;-81
2023/11/05 02:41:43;;;;;;;4.90;1.65;;;9.00;99.90;;;7.67;90.47;97517.50;4938507;28;20050;-82
2023/11/05 02:44:21;;;;;;;3.58;1.50;;;9.00;99.90;;;7.68;90.77;97524.41;4912476;28;20072;-82
2023/11/05 02:46:47;;;;;;;2.75;1.48;;;9.00;99.90;;;7.65;90.92;97514.19;4901356;28;20101;-81
2023/11/05 02:49:24;;;;;;;7.93;1.80;;;9.00;99.90;;;7.68;90.64;97508.69;4905208;28;20030;-82
2023/11/05 02:51:52;;;;;;;5.35;1.75;;;9.00;99.90;;;7.69;91.21;97510.31;4891761;28;20046;-81
2023/11/05 02:54:27;;;;;;;5.22;2.00;;;9.00;99.90;;;7.68;91.39;97498.22;4915192;28;20508;-81
2023/11/05 02:56:53;;;;;;;4.97;1.80;;;;;;;7.67;91.15;97496.56;4897592;28;20050;-82
2023/11/05 02:59:27;;;;;;;6.63;2.20;;;9.00;99.90;;;7.71;91.72;97497.94;4926683;28;20065;-82
2023/11/05 03:01:55;;;;;;;5.78;1.90;;;9.00;99.90;;;7.74;91.48;97492.44;4916406;28;20207;-82
2023/11/05 03:04:35;;;;;;;6.60;2.15;;;9.00;99.90;;;7.73;91.03;97498.63;4898270;28;20040;-81
2023/11/05 03:07:04;;;;;;;4.68;1.80;;;9.00;99.90;;;7.72;91.84;97507.47;4916152;28;20074;-81
2023/11/05 03:09:42;;;;;;;4.00;1.92;;;9.00;99.90;;;7.66;91.65;97502.75;4894401;28;20489;-82
2023/11/05 03:12:08;;;;;;;8.88;2.90;;;9.00;99.90;;;7.64;92.38;97486.34;4902398;28;20047;-81
2023/11/05 03:14:54;;;;;;;3.58;2.10;;;9.00;99.90;;;7.64;92.26;97496.81;4890697;28;20032;-81
2023/11/05 03:17:25;;;;;;;3.72;2.05;;;8.90;99.90;;;7.58;92.67;97488.53;4890839;28;20050;-82
2023/11/05 03:20:01;;;;;;;;;;;;;;;;;;;;;
2023/11/05 03:22:27;;;;;;;5.32;1.95;;;8.90;99.90;;;7.54;92.72;97481.09;4872324;28;20050;-81
2023/11/05 03:24:56;;;;;;;5.18;2.00;;;8.90;99.90;;;7.59;93.72;97477.09;4913684;28;20045;-82
2023/11/05 03:27:27;;;;;;;4.13;1.80;;;8.90;99.90;;;7.57;93.23;97481.63;4885810;28;20093;-84
2023/11/05 03:29:55;;;;;;;5.53;1.90;;;8.90;99.90;;;7.56;93.60;97477.38;4919095;28;20039;-85
2023/11/05 03:32:23;;;;;;;7.00;2.33;;;8.90;99.90;;;7.62;94.08;97477.78;4912431;28;20519;-84
2023/11/05 03:34:55;;;;;;;3.45;1.75;;;;;;;7.59;93.51;97477.09;4901243;28;20721;-84
2023/11/05 03:37:24;;;;;;;3.88;1.70;;;8.90;99.90;;;7.60;94.16;97473.53;4913830;28;20116;-84
2023/11/05 03:39:59;;;;;;;4.30;1.80;;;8.90;99.90;;;7.59;94.08;97474.47;4906403;28;20098;-85
2023/11/05 03:42:25;;;;;;;6.43;2.45;;;8.90;99.90;;;7.56;94.68;97466.88;4885869;28;20049;-85
2023/11/05 03:44:53;;;;;;;4.40;1.85;;;8.90;99.90;;;7.61;95.32;97469.09;4895490;28;20599;-84
2023/11/05 03:47:27;;;;;;;7.13;2.10;;;8.90;99.90;;;7.66;95.19;97466.09;4893258;28;20189;-84
2023/11/05 03:49:53;;;;;;;8.15;1.85;;;8.90;99.90;;;7.63;95.72;97467.19;4879369;28;20133;-84
2023/11/05 03:52:29;;;;;;;;;;;;;;;;;;;;;
2023/11/05 03:54:55;;;;;;;5.68;1.70;;;8.90;99.90;;;7.58;96.02;97458.88;4924693;28;20374;-84
2023/11/05 03:57:24;;;;;;;5.18;1.50;;;8.90;99.90;;;7.59;97.48;97474.47;4894999;28;20049;-84
2023/11/05 03:59:50;;;;;;;3.80;2.00;;;8.90;99.90;;;7.59;98.29;97469.22;4906563;28;20376;-82
2023/11/05 04:02:15;;;;;;;11.13;2.13;;;8.90;99.90;;;7.60;98.16;97468.28;4892887;28;20046;-81
2023/11/05 04:04:51;;;;;;;3.97;1.90;;;8.90;99.90;;;7.57;99.41;97471.16;4891664;28;21577;-82
2023/11/05 04:07:17;;;;;;;5.63;2.35;;;8.80;99.90;;;7.53;100.00;97463.69;4886453;28;20122;-81
2023/11/05 04:09:43;;;;;;;5.80;1.90;;;8.80;99.90;;;7.48;100.00;97461.47;4861051;28;20035;-84
2023/11/05 04:12:14;;;;;;;7.18;2.08;;;8.80;99.90;;;7.47;100.00;97451.94;4900084;28;20035;-83
2023/11/05 04:14:42;;;;;;;5.38;2.13;;;8.80;99.90;;;7.46;100.00;97457.34;4908101;28;20046;-84
2023/11/05 04:17:07;;;;;;;7.90;2.08;;;8.80;99.90;;;7.41;100.00;97444.66;4928266;28;20042;-84
2023/11/05 04:19:35;;;;;;;7.20;2.38;;;8.70;99.90;;;7.40;100.00;97450.84;4960443;28;20042;-84
2023/11/05 04:22:06;;;;;;;5.35;2.05;;;8.70;99.90;;;7.37;100.00;97441.47;4917674;28;20158;-84
2023/11/05 04:24:34;;;;;;;3.80;2.22;;;8.70;99.90;;;7.37;100.00;97444.06;4965437;28;20113;-84
2023/11/05 04:27:10;;;;;;;5.10;2.55;;;8.70;99.90;;;7.37;100.00;97440.63;4917307;28;20210;-83
2023/11/05 04:29:36;;;;;;;8.38;2.28;;;8.60;99.90;;;7.31;100.00;97435.91;4905741;28;20044;-84
2023/11/05 04:32:04;;;;;;;6.55;2.28;;;8.60;99.90;;;7.33;100.00;97434.00;4894945;28;20421;-84
2023/11/05 04:34:32;;;;;;;4.50;2.40;;;8.60;99.90;;;7.31;100.00;97430.69;4948953;28;20572;-83
2023/11/05 04:37:07;;;;;;;4.97;1.98;;;8.60;99.90;;;7.30;100.00;97431.63;4917565;28;20221;-83
2023/11/05 04:39:42;;;;;;;3.88;2.15;;;8.60;99.90;;;7.29;100.00;97425.56;4896307;28;20039;-84
2023/11/05 04:42:12;;;;;;;6.10;2.45;;;8.60;99.90;;;7.28;100.00;97431.78;4843104;28;20044;-83
2023/11/05 04:44:37;;;;;;;3.47;2.42;;;8.60;99.90;;;7.24;100.00;97424.34;4839872;28;20125;-82
2023/11/05 04:47:12;;;;;;;4.93;1.80;;;8.50;99.90;;;7.18;100.00;97423.88;4909013;28;20058;-83
2023/11/05 04:49:38;;;;;;;4.50;2.20;;;8.50;99.90;;;7.21;100.00;97424.56;4910811;28;20073;-85
2023/11/05 04:52:04;;;;;;;5.53;2.10;;;8.50;99.90;;;7.17;100.00;97418.75;4923782;28;20508;-85
2023/11/05 04:54:30;;;;;;;8.50;2.13;;;;;;;7.14;100.00;97419.88;4907498;28;20066;-84
2023/11/05 04:56:57;;;;;;;5.88;2.50;;;8.50;99.90;;;7.13;100.00;97420.84;4919342;28;20069;-84
2023/11/05 04:59:28;;;;;;;5.78;2.20;;;8.50;99.90;;;7.11;100.00;97420.13;4932287;28;20088;-83
2023/11/05 05:01:58;;;;;;;3.60;2.00;;;;;;;7.13;100.00;97422.63;4907589;28;20077;-84
2023/11/05 05:04:24;;;;;;;6.45;1.92;;;8.50;99.90;;;7.18;100.00;97429.13;4929790;28;20110;-85
2023/11/05 05:06:59;;;;;;;4.80;2.13;;;8.50;99.90;;;7.21;100.00;97422.78;4919390;28;20082;-82
2023/11/05 05:09:25;;;;;;;5.53;2.53;;;8.50;99.90;;;7.19;100.00;97420.31;4929895;28;20041;-83
2023/11/05 05:12:18;;;;;;;6.25;2.50;;;8.50;99.90;;;7.22;100.00;97414.00;4906701;28;20043;-84
2023/11/05 05:14:43;;;;;;;4.60;1.98;;;8.50;99.90;;;7.21;100.00;97406.25;4922352;28;20050;-85
2023/11/05 05:17:10;;;;;;;6.53;2.00;;;8.50;99.90;;;7.17;100.00;97406.53;4925429;28;20042;-83
2023/11/05 05:19:36;;;;;;;4.32;1.98;;;8.50;99.90;;;7.21;100.00;97414.09;4934624;28;20042;-83
2023/11/05 05:22:07;;;;;;;3.97;2.00;;;8.50;99.90;;;7.21;100.00;97416.72;4915305;28;20050;-84
2023/11/05 05:24:36;;;;;;;3.22;1.88;;;8.50;99.90;;;7.16;100.00;97415.31;4882033;28;20048;-84
2023/11/05 05:27:04;;;;;;;4.18;2.92;;;8.50;99.90;;;7.23;100.00;97407.78;4914032;28;20077;-84
2023/11/05 05:29:42;;;;;;;6.25;2.25;;;8.50;99.90;;;7.23;100.00;97404.34;4897641;28;21628;-84
2023/11/05 05:32:07;;;;;;;6.85;2.22;;;8.60;99.90;;;7.25;100.00;97412.88;4895704;28;20034;-83
2023/11/05 05:34:38;;;;;;;5.30;2.17;;;8.60;99.90;;;7.24;100.00;97409.44;4885796;28;20162;-85
2023/11/05 05:37:04;;;;;;;3.10;1.85;;;8.60;99.90;;;7.24;100.00;97414.69;4916162;28;20070;-84
2023/11/05 05:39:35;;;;;;;5.60;2.33;;;;;;;7.21;100.00;97414.94;4881737;23;20043;-85
2023/11/05 05:42:10;;;;;;;5.82;2.22;;;8.50;99.90;;;7.18;100.00;97417.81;4899368;28;20035;-84
2023/11/05 05:44:35;;;;;;;3.50;2.00;;;8.50;99.90;;;7.14;100.00;97417.25;4881874;28;20114;-85
2023/11/05 05:47:03;;;;;;;4.93;2.00;;;8.40;99.90;;;7.09;100.00;97416.81;4897236;28;20050;-84
2023/11/05 05:49:35;;;;;;;3.83;2.30;;;8.50;99.90;;;7.16;100.00;97419.75;4899668;28;20739;-84
2023/11/05 05:52:04;;;;;;;10.05;2.60;;;8.50;99.90;;;7.11;100.00;97428.00;4889788;28;20047;-84
2023/11/05 05:54:30;;;;;;;4.30;2.30;;;8.50;99.90;;;7.14;100.00;97430.31;4847641;28;20058;-83
2023/11/05 05:57:06;;;;;;;5.43;2.63;;;8.50;99.90;;;7.13;100.00;97430.47;4869665;28;20031;-84
2023/11/05 05:59:34;;;;;;;3.47;2.03;;;8.40;99.90;;;7.14;100.00;97429.50;4832963;23;20564;-84
2023/11/05 06:02:07;;;;;;;4.32;2.20;;;8.50;99.90;;;7.21;100.00;97433.25;4875721;28;20631;-83
2023/11/05 06:04:34;;;;;;;6.43;2.22;;;8.50;99.90;;;7.26;100.00;97440.72;4869846;28;20121;-84
2023/11/05 06:07:03;;;;;;;5.28;2.33;;;;;;;7.24;100.00;97430.38;4893662;28;20043;-84
2023/11/05 06:09:39;;;;;;;7.68;2.45;;;8.60;99.90;;;7.28;100.00;97429.16;4882423;28;20043;-83
2023/11/05 06:12:06;;;;;;;5.60;2.22;;;8.50;99.90;;;7.25;100.00;97434.66;4884726;28;20575;-84
2023/11/05 06:14:55;;;;;;;4.40;2.10;;;8.60;99.90;;;7.25;100.00;97433.81;4879034;28;20052;-83
2023/11/05 06:17:21;;;;;;;6.55;2.38;;;8.50;99.90;;;7.19;100.00;97424.69;4902792;28;20285;-84
2023/11/05 06:19:47;;;;;;;4.40;2.10;;;8.50;99.90;;;7.21;100.00;97424.56;4897354;28;20563;-84
2023/11/05 06:22:13;;;;;;;5.53;3.40;;;8.50;99.90;;;7.21;100.00;97421.97;4861953;28;20035;-84
2023/11/05 06:24:47;;;;;;;4.75;2.95;;;8.50;99.90;;;7.21;100.00;97421.97;4862773;29;20082;-82
2023/11/05 06:27:15;;;;;;;9.02;4.03;;;;;;;7.22;100.00;97413.16;4888423;28;20064;-84
2023/11/05 06:29:44;;;;;;;9.75;3.55;;;8.50;99.90;;;7.24;100.00;97426.94;4929678;28;20057;-84
2023/11/05 06:32:19;;;;;;;7.57;3.42;;;8.50;99.90;;;7.20;100.00;97408.06;4914915;28;20066;-83
2023/11/05 06:34:45;;;;;;;10.02;4.13;;;8.50;99.90;;;7.22;100.00;97421.00;4879670;28;20106;-83
2023/11/05 06:37:18;;;;;;;15.60;5.32;;;8.40;99.90;;;7.19;100.00;97419.47;4896830;28;20513;-84
2023/11/05 06:39:44;;;;;;;8.68;3.97;;;8.50;99.90;;;7.15;100.00;97412.88;4892091;28;20107;-85
2023/11/05 06:42:12;;;;;;;6.35;2.65;;;8.40;99.90;;;7.08;100.00;97417.75;4887394;28;20020;-85
2023/11/05 06:44:38;;;;;;;8.80;2.72;;;8.30;99.90;;;7.06;100.00;97411.00;4861715;28;20147;-83
2023/11/05 06:47:27;;;;;;;8.68;2.47;;;8.40;99.90;;;7.10;100.00;97410.63;4869882;28;20099;-84
2023/11/05 06:49:55;;;;;;;4.18;2.75;;;8.40;99.90;;;7.14;100.00;97417.25;4854007;28;20049;-83
2023/11/05 06:52:24;;;;;;;5.03;3.42;;;8.40;99.90;;;7.15;100.00;97408.44;4845038;29;21441;-83
2023/11/05 06:54:56;;;;;;;13.65;5.45;;;8.50;99.90;;;7.25;100.00;97408.47;4833329;29;21312;-85
2023/11/05 06:57:24;;;;;;;15.18;7.65;;;8.50;99.90;;;7.31;100.00;97412.38;4883940;28;20039;-84
2023/11/05 07:00:16;;;;;;;35.85;13.95;;;8.60;99.90;;;7.36;100.00;97413.66;4873542;28;20328;-84
2023/11/05 07:02:45;;;;;;;23.13;11.13;;;8.60;99.90;;;7.39;100.00;97413.38;4872692;28;20039;-84
2023/11/05 07:05:18;;;;;;;7.45;4.78;;;;;;;7.40;100.00;97412.38;4863843;28;20523;-84
2023/11/05 07:07:47;;;;;;;4.43;3.53;;;8.70;99.90;;;7.47;100.00;97414.47;4907752;28;20167;-85
2023/11/05 07:10:15;;;;;;;9.63;5.80;;;8.70;99.90;;;7.49;100.00;97410.75;4903191;28;20058;-84
2023/11/05 07:12:47;;;;;;;7.05;3.78;;;8.70;99.90;;;7.46;100.00;97405.81;4867131;29;20031;-85
2023/11/05 07:15:16;;;;;;;6.30;3.20;;;8.70;99.90;;;7.47;100.00;97406.63;4875746;29;20071;-84
2023/11/05 07:18:07;;;;;;;4.65;2.95;;;8.70;99.90;;;7.50;100.00;97401.16;4859639;29;20054;-85
2023/11/05 07:20:36;;;;;;;6.28;3.22;;;8.70;99.90;;;7.43;100.00;97397.38;4872766;28;20147;-84
2023/11/05 07:23:03;;;;;;;10.30;3.42;;;8.70;99.90;;;7.39;100.00;97402.06;4841036;29;20028;-85
2023/11/05 07:25:35;;;;;;;7.35;3.25;;;8.60;99.90;;;7.40;100.00;97401.91;4887297;28;20085;-84
2023/11/05 07:28:03;;;;;;;6.45;2.92;;;;;;;7.38;100.00;97401.22;4848888;28;20910;-84
2023/11/05 07:30:42;;;;;;;;;;;;;;;;;;;;;
2023/11/05 07:33:09;;;;;;;4.60;2.55;;;8.70;99.90;;;7.44;100.00;97405.09;4886067;28;20423;-83
2023/11/05 07:35:36;;;;;;;11.48;2.67;;;8.70;99.90;;;7.47;100.00;97407.44;4874480;28;20039;-84
2023/11/05 07:38:14;;;;;;;9.05;2.80;;;8.70;99.90;;;7.48;100.00;97403.88;4935400;28;20031;-84
2023/11/05 07:40:47;;;;;;;5.60;2.50;;;8.70;99.90;;;7.48;100.00;97401.25;4890725;28;20054;-84
2023/11/05 07:43:15;;;;;;;8.30;3.13;;;8.70;99.90;;;7.47;100.00;97399.59;4871239;28;20076;-84
2023/11/05 07:45:57;;;;;;;4.05;2.65;;;8.70;99.90;;;7.45;100.00;97403.31;4883034;28;20039;-83
2023/11/05 07:48:38;;;;;;;5.95;3.00;;;8.70;99.90;;;7.54;100.00;97408.59;4864963;28;20059;-85
2023/11/05 07:51:04;;;;;;;6.03;3.00;;;8.80;99.90;;;7.56;100.00;97404.06;4886568;28;20132;-84
2023/11/05 07:53:36;;;;;;;7.43;3.28;;;8.80;99.90;;;7.60;100.00;97396.75;4852558;28;20046;-84
2023/11/05 07:56:04;;;;;;;5.07;2.80;;;8.80;99.90;;;7.65;100.00;97398.97;4882083;28;20034;-82
2023/11/05 07:58:44;;;;;;;4.07;2.50;;;8.90;99.90;;;7.68;100.00;97399.53;4903506;28;20422;-82
2023/11/05 08:01:12;;;;;;;5.72;2.55;;;8.90;99.90;;;7.71;100.00;97403.66;4910371;28;20133;-82
2023/11/05 08:03:45;;;;;;;8.60;2.60;;;8.90;99.90;;;7.73;100.00;97405.19;4883313;28;20042;-82
2023/11/05 08:06:38;;;;;;;3.78;2.33;;;9.00;99.90;;;7.76;100.00;97399.69;4881978;28;20055;-83
2023/11/05 08:09:04;;;;;;;4.95;2.65;;;9.00;99.90;;;7.77;100.00;97393.47;4871452;28;20797;-82
2023/11/05 08:11:32;;;;;;;7.43;2.40;;;9.00;99.90;;;7.82;100.00;97395.69;4902372;28;20043;-82
2023/11/05 08:14:00;;;;;;;4.03;2.50;;;9.10;99.90;;;7.88;100.00;97400.38;4889296;28;20043;-82
2023/11/05 08:16:34;;;;;;;3.88;2.63;;;9.10;99.90;;;7.92;100.00;97385.22;4865738;28;20043;-82
2023/11/05 08:19:02;;;;;;;4.68;2.10;;;9.10;99.90;;;7.97;100.00;97386.47;4880003;28;20039;-82
2023/11/05 08:21:28;;;;;;;3.35;2.30;;;9.60;99.90;;;8.07;100.00;97385.66;4873274;28;20043;-83
2023/11/05 08:24:06;;;;;;;7.35;2.50;;;9.40;99.90;;;8.20;100.00;97388.81;4883441;28;20146;-82
2023/11/05 08:26:44;;;;;;;4.63;2.60;;;9.40;99.90;;;8.32;100.00;97392.16;4845244;29;20480;-82
2023/11/05 08:29:14;;;;;;;4.18;2.45;;;9.50;99.90;;;8.35;100.00;97397.91;4865933;28;20061;-82
2023/11/05 08:31:47;;;;;;;3.33;2.17;;;9.50;99.90;;;8.33;100.00;97391.97;4900733;28;20469;-83
2023/11/05 08:34:15;;;;;;;5.68;2.33;;;9.50;99.90;;;8.37;100.00;97397.78;4854528;28;20090;-83
2023/11/05 08:36:54;;;;;;;3.67;2.03;;;9.60;99.90;;;8.37;100.00;97387.31;4869697;28;20047;-82
2023/11/05 08:39:27;;;;;;;4.35;2.17;;;9.60;99.90;;;8.39;100.00;97388.00;4897590;28;20067;-81
2023/11/05 08:41:56;;;;;;;4.05;2.05;;;9.60;99.90;;;8.37;100.00;97389.94;4874287;28;20075;-83
2023/11/05 08:44:24;;;;;;;5.32;2.38;;;;;;;8.34;100.00;97395.47;4879006;28;20127;-83
2023/11/05 08:46:55;;;;;;;3.17;1.92;;;9.50;99.90;;;8.33;100.00;97405.09;4879593;29;20124;-82
2023/11/05 08:49:24;;;;;;;4.18;2.40;;;9.60;99.90;;;8.33;100.00;97397.22;4837527;29;20791;-83
2023/11/05 08:52:07;;;;;;;5.70;2.35;;;9.60;99.90;;;8.44;100.00;97403.34;4871974;28;20030;-82
2023/11/05 08:54:45;;;;;;;2.53;1.73;;;;;;;8.52;100.00;97399.03;4886992;28;20030;-83
2023/11/05 08:57:18;;;;;;;6.60;2.25;;;9.70;99.90;;;8.63;100.00;97405.94;4887272;28;20094;-82
2023/11/05 08:59:45;;;;;;;5.85;1.75;;;9.80;99.90;;;8.71;100.00;97403.44;4868944;28;20505;-83
2023/11/05 09:02:11;;;;;;;9.30;2.08;;;9.90;99.90;;;8.78;100.00;97398.47;4887797;28;20130;-82
2023/11/05 09:05:06;;;;;;;3.17;1.63;;;10.00;99.90;;;8.88;100.00;97401.06;4880250;28;20114;-82
2023/11/05 09:07:36;;;;;;;2.35;1.40;;;10.10;99.90;;;8.98;100.00;97412.34;4886200;28;20062;-83
2023/11/05 09:10:09;;;;;;;3.47;1.50;;;10.20;99.90;;;9.09;100.00;97417.41;4868820;28;20105;-83
2023/11/05 09:12:35;;;;;;;2.72;1.30;;;10.30;99.90;;;9.19;100.00;97417.41;4878209;28;20034;-83
2023/11/05 09:15:28;;;;;;;6.32;1.40;;;10.40;99.90;;;9.29;100.00;97428.69;4888337;28;20083;-82
2023/11/05 09:17:56;;;;;;;2.78;1.33;;;10.50;99.90;;;9.34;100.00;97436.13;4882064;28;20032;-83
2023/11/05 09:20:36;;;;;;;2.00;1.20;;;10.50;99.90;;;9.34;100.00;97433.50;4854276;28;20048;-82
2023/11/05 09:23:04;;;;;;;9.48;1.13;;;10.60;99.90;;;9.31;100.00;97441.66;4866412;28;20047;-83
2023/11/05 09:25:49;;;;;;;;;;;;;;;;;;;;;
2023/11/05 09:28:18;;;;;;;3.85;1.00;;;10.60;99.90;;;9.41;100.00;97431.97;4887696;28;20243;-83
2023/11/05 09:30:45;;;;;;;2.65;0.82;;;10.60;99.90;;;9.44;100.00;97432.50;4884837;28;20560;-83
2023/11/05 09:33:35;;;;;;;1.77;1.13;;;;;;;9.45;100.00;97425.44;4854281;28;20054;-83
2023/11/05 09:36:46;;;;;;;3.65;1.23;;;10.70;99.90;;;9.56;100.00;97425.25;4900888;28;20119;-83
2023/11/05 09:39:15;;;;;;;4.85;1.10;;;10.80;99.90;;;9.69;100.00;97421.47;4898737;28;20487;-83
2023/11/05 09:41:42;;;;;;;5.68;1.10;;;10.90;99.90;;;9.81;100.00;97418.50;4884395;29;20040;-83
2023/11/05 09:44:17;;;;;;;2.67;1.00;;;11.00;99.90;;;9.98;100.00;97416.88;4819356;29;20035;-83
2023/11/05 09:46:47;;;;;;;3.10;1.20;;;11.10;99.90;;;10.12;100.00;97412.06;4861375;29;20051;-83
2023/11/05 09:49:24;;;;;;;5.10;1.15;;;11.30;99.90;;;10.27;100.00;97406.13;4844407;29;21032;-82
2023/11/05 09:52:35;;;;;;;1.58;0.88;;;11.40;99.90;;;10.48;100.00;97415.56;4834661;29;20533;-83
2023/11/05 09:55:28;;;;;;;2.50;1.10;;;11.70;99.90;;;10.65;100.00;97413.88;4794695;29;20199;-83
2023/11/05 09:58:11;;;;;;;4.32;1.27;;;11.80;99.90;;;10.82;100.00;97409.53;4766900;29;20046;-83
2023/11/05 10:03:36;;;;;;;4.03;0.88;;;12.10;99.90;;;11.07;100.00;97419.25;4738444;29;20073;-83
2023/11/05 10:06:25;;;;;;;1.27;0.90;;;12.20;99.90;;;11.15;100.00;97426.38;4751349;29;20042;-82
2023/11/05 10:08:56;;;;;;;3.67;1.05;;;12.20;99.90;;;11.21;98.99;97433.66;4755998;29;20031;-83
2023/11/05 10:11:34;;;;;;;5.28;0.90;;;12.30;99.90;;;11.28;98.97;97421.50;4704923;29;20787;-83
2023/11/05 10:14:05;;;;;;;4.70;0.90;;;12.40;99.90;;;11.29;97.92;97424.97;4720629;29;20434;-83
2023/11/05 10:16:37;;;;;;;3.83;1.00;;;12.40;99.90;;;11.32;96.86;97424.69;4750552;29;20052;-83
2023/11/05 10:21:55;;;;;;;2.20;0.93;;;12.50;99.90;;;11.37;96.63;97429.47;4732608;29;20057;-83
2023/11/05 10:24:48;;;;;;;2.13;0.90;;;12.40;99.90;;;11.32;95.22;97431.72;4721078;29;20046;-83
2023/11/05 10:27:40;;;;;;;;;;;;;;;;;;;;;
2023/11/05 10:30:20;;;;;;;;;;;;;;;;;;;;;
2023/11/05 10:36:06;;;;;;;3.22;0.90;;;12.30;99.90;;;11.14;92.36;97440.53;4799193;29;20056;-83
2023/11/05 10:38:44;;;;;;;2.95;1.20;;;;;;;11.16;93.19;97435.09;4808760;29;20045;-83
2023/11/05 10:41:18;;;;;;;3.25;1.00;;;12.30;99.90;;;11.12;93.54;97434.56;4810655;29;20060;-82
2023/11/05 10:43:48;;;;;;;5.15;0.98;;;12.20;99.90;;;11.09;93.09;97445.44;4794884;29;20044;-83
2023/11/05 10:46:23;;;;;;;4.47;0.70;;;12.20;99.90;;;11.13;93.36;97445.97;4808990;29;20482;-82
2023/11/05 10:49:07;;;;;;;9.20;0.90;;;12.30;99.90;;;11.14;93.92;97440.53;4822229;29;21176;-83
2023/11/05 10:51:45;;;;;;;4.50;0.90;;;12.30;99.90;;;11.19;94.01;97440.91;4838817;29;20043;-82
2023/11/05 10:54:39;;;;;;;6.70;0.73;;;;;;;11.24;94.31;97435.97;4857554;28;20040;-82
2023/11/05 10:57:54;;;;;;;3.05;0.68;;;12.40;99.90;;;11.32;93.53;97439.63;4832725;29;20075;-83
2023/11/05 11:03:14;;;;;;;3.65;0.65;;;12.50;99.90;;;11.47;93.56;97438.09;4854490;29;20059;-83
2023/11/05 11:05:54;;;;;;;1.30;0.60;;;12.60;99.90;;;11.59;93.68;97439.44;4877075;29;20455;-83
2023/11/05 11:08:45;;;;;;;3.88;0.90;;;12.70;99.90;;;11.74;93.47;97434.41;4867626;28;20102;-83
2023/11/05 11:11:19;;;;;;;1.15;0.63;;;12.90;99.90;;;11.87;93.75;97436.59;4820677;29;20036;-83
2023/11/05 11:13:56;;;;;;;1.75;0.57;;;;;;;11.91;92.40;97430.03;4793405;29;20057;-83
2023/11/05 11:16:47;;;;;;;5.40;0.77;;;13.00;99.90;;;11.86;91.25;97433.13;4775965;29;20045;-82
2023/11/05 11:19:16;;;;;;;2.88;0.70;;;12.90;99.90;;;11.82;91.25;97430.97;4769442;29;20733;-82
2023/11/05 11:22:39;;;;;;;2.00;0.50;;;12.90;99.90;;;11.76;90.94;97431.63;4731923;29;20417;-83